createdAt,value
2022-10-22T00:01:45.920Z,7.40
2022-10-22T00:04:13.860Z,6.47
2022-10-22T00:06:43.058Z,8.75
2022-10-22T00:09:10.850Z,7.88
2022-10-22T00:11:38.281Z,5.70
2022-10-22T00:14:06.176Z,7.10
2022-10-22T00:16:33.633Z,7.03
2022-10-22T00:19:01.116Z,8.93
2022-10-22T00:21:29.471Z,7.38
2022-10-22T00:23:57.330Z,10.50
2022-10-22T00:26:24.763Z,7.25
2022-10-22T00:28:52.149Z,7.75
2022-10-22T00:31:20.310Z,7.05
2022-10-22T00:33:48.354Z,6.50
2022-10-22T00:36:16.921Z,9.27
2022-10-22T00:38:44.299Z,12.38
2022-10-22T00:41:11.587Z,8.73
2022-10-22T00:46:35.558Z,7.50
2022-10-22T00:49:05.173Z,6.70
2022-10-22T00:51:35.188Z,7.93
2022-10-22T00:54:07.436Z,8.02
2022-10-22T00:56:37.168Z,8.13
2022-10-22T00:59:06.664Z,7.32
2022-10-22T01:01:34.055Z,8.98
2022-10-22T01:04:01.480Z,8.73
2022-10-22T01:06:32.702Z,8.45
2022-10-22T01:31:23.259Z,6.43
2022-10-22T01:33:53.652Z,6.15
2022-10-22T01:36:22.116Z,8.45
2022-10-22T01:38:51.291Z,6.82
2022-10-22T01:41:19.443Z,6.70
2022-10-22T01:43:46.734Z,7.13
2022-10-22T01:46:14.542Z,7.15
2022-10-22T01:57:17.112Z,6.72
2022-10-22T02:08:01.612Z,7.55
2022-10-22T02:10:31.495Z,6.28
2022-10-22T02:13:01.570Z,5.05
2022-10-22T02:18:22.333Z,6.40
2022-10-22T02:20:50.923Z,5.93
2022-10-22T02:23:18.384Z,6.47
2022-10-22T02:25:54.081Z,4.93
2022-10-22T02:28:32.665Z,5.88
2022-10-22T02:31:10.397Z,6.75
2022-10-22T02:33:44.744Z,5.35
2022-10-22T02:36:13.496Z,6.00
2022-10-22T02:38:42.474Z,6.60
2022-10-22T02:41:10.263Z,6.43
2022-10-22T02:43:43.688Z,7.40
2022-10-22T02:46:11.703Z,9.82
2022-10-22T02:48:39.035Z,8.27
2022-10-22T02:51:06.582Z,7.22
2022-10-22T02:53:33.910Z,8.93
2022-10-22T02:56:01.334Z,8.57
2022-10-22T02:58:28.632Z,7.10
2022-10-22T03:00:55.980Z,5.43
2022-10-22T03:03:23.329Z,6.95
2022-10-22T03:05:52.397Z,8.13
2022-10-22T03:08:19.760Z,7.47
2022-10-22T03:10:47.034Z,4.88
2022-10-22T03:13:14.847Z,6.97
2022-10-22T03:15:42.133Z,7.38
2022-10-22T03:18:09.736Z,7.68
2022-10-22T03:20:37.161Z,8.45
2022-10-22T03:23:04.595Z,9.50
2022-10-22T03:25:34.817Z,8.25
2022-10-22T03:28:07.324Z,8.85
2022-10-22T03:30:34.735Z,7.93
2022-10-22T03:33:02.133Z,10.38
2022-10-22T03:35:29.639Z,10.05
2022-10-22T03:38:00.373Z,8.02
2022-10-22T03:40:27.957Z,11.10
2022-10-22T03:42:55.571Z,7.57
2022-10-22T03:45:22.870Z,9.80
2022-10-22T03:47:50.225Z,6.72
2022-10-22T03:50:17.623Z,10.02
2022-10-22T03:52:45.066Z,8.27
2022-10-22T03:55:12.953Z,10.32
2022-10-22T03:57:40.688Z,9.95
2022-10-22T04:00:09.925Z,13.18
2022-10-22T04:02:39.267Z,8.30
2022-10-22T04:05:07.532Z,8.93
2022-10-22T04:07:35.339Z,7.78
2022-10-22T04:10:03.152Z,6.45
2022-10-22T04:12:30.813Z,8.90
2022-10-22T04:14:58.530Z,7.97
2022-10-22T04:17:26.161Z,9.57
2022-10-22T04:19:54.444Z,8.15
2022-10-22T04:22:23.120Z,7.20
2022-10-22T04:24:52.260Z,10.27
2022-10-22T04:27:20.878Z,9.73
2022-10-22T04:29:50.304Z,13.75
2022-10-22T04:32:19.158Z,8.90
2022-10-22T04:34:48.684Z,8.80
2022-10-22T04:37:18.462Z,12.27
2022-10-22T04:39:48.074Z,8.38
2022-10-22T04:42:16.433Z,10.10
2022-10-22T04:44:44.727Z,9.57
2022-10-22T04:47:16.002Z,9.95
2022-10-22T04:49:45.854Z,9.73
2022-10-22T04:52:17.900Z,11.57
2022-10-22T04:54:51.014Z,8.52
2022-10-22T04:57:22.561Z,8.38
2022-10-22T04:59:52.577Z,10.00
2022-10-22T05:02:23.842Z,10.93
2022-10-22T05:04:55.536Z,9.13
2022-10-22T05:07:26.123Z,8.70
2022-10-22T05:09:57.896Z,8.10
2022-10-22T05:12:32.051Z,11.57
2022-10-22T05:15:05.810Z,9.55
2022-10-22T05:17:40.551Z,9.52
2022-10-22T05:20:14.143Z,11.60
2022-10-22T05:22:47.633Z,9.68
2022-10-22T05:25:22.106Z,10.93
2022-10-22T05:27:57.256Z,9.65
2022-10-22T05:30:34.256Z,10.75
2022-10-22T05:33:09.133Z,11.52
2022-10-22T05:35:46.842Z,9.43
2022-10-22T05:38:30.454Z,9.90
2022-10-22T05:41:11.398Z,9.27
2022-10-22T05:43:48.995Z,9.15
2022-10-22T05:46:28.965Z,7.78
2022-10-22T05:49:07.484Z,10.55
2022-10-22T05:51:47.715Z,8.13
2022-10-22T05:54:22.209Z,7.57
2022-10-22T05:56:56.551Z,9.40
2022-10-22T05:59:30.204Z,8.65
2022-10-22T06:02:03.330Z,7.93
2022-10-22T06:04:38.440Z,9.82
2022-10-22T06:07:17.140Z,9.65
2022-10-22T06:09:54.190Z,11.35
2022-10-22T06:12:31.731Z,9.60
2022-10-22T06:15:06.416Z,10.23
2022-10-22T06:17:42.160Z,10.20
2022-10-22T06:20:19.821Z,10.23
2022-10-22T06:22:55.332Z,10.68
2022-10-22T06:25:30.533Z,12.43
2022-10-22T06:28:07.986Z,14.60
2022-10-22T06:30:46.618Z,11.43
2022-10-22T06:33:23.137Z,11.48
2022-10-22T06:36:06.649Z,12.27
2022-10-22T06:38:43.638Z,12.95
2022-10-22T06:41:24.313Z,14.30
2022-10-22T06:44:04.770Z,10.73
2022-10-22T06:46:43.538Z,14.85
2022-10-22T06:49:22.491Z,16.65
2022-10-22T06:52:05.355Z,15.15
2022-10-22T06:54:42.477Z,10.35
2022-10-22T06:57:23.820Z,12.88
2022-10-22T07:00:02.699Z,12.80
2022-10-22T07:02:46.981Z,13.63
2022-10-22T07:05:39.426Z,11.20
2022-10-22T07:08:24.317Z,10.32
2022-10-22T07:11:19.142Z,10.52
2022-10-22T07:13:57.304Z,11.60
2022-10-22T07:16:34.936Z,8.57
2022-10-22T07:19:15.398Z,12.52
2022-10-22T07:21:54.867Z,10.45
2022-10-22T07:24:33.597Z,12.27
2022-10-22T07:27:07.010Z,13.27
2022-10-22T07:29:49.016Z,13.15
2022-10-22T07:32:23.819Z,12.07
2022-10-22T07:35:06.893Z,10.20
2022-10-22T07:38:00.563Z,11.52
2022-10-22T07:40:45.346Z,12.73
2022-10-22T07:43:41.130Z,15.48
2022-10-22T07:46:32.060Z,18.33
2022-10-22T07:49:10.205Z,21.33
2022-10-22T07:51:42.615Z,20.35
2022-10-22T07:54:23.942Z,16.85
2022-10-22T07:56:58.236Z,11.57
2022-10-22T07:59:34.120Z,11.20
2022-10-22T08:02:07.273Z,8.55
2022-10-22T08:04:47.696Z,9.55
2022-10-22T08:10:12.370Z,10.20
2022-10-22T08:13:04.166Z,9.13
2022-10-22T08:15:38.998Z,8.65
2022-10-22T08:18:24.103Z,8.93
2022-10-22T08:21:00.809Z,9.68
2022-10-22T08:23:41.350Z,8.05
2022-10-22T08:26:28.984Z,15.90
2022-10-22T08:29:12.120Z,10.32
2022-10-22T08:31:50.084Z,6.15
2022-10-22T08:34:30.533Z,10.10
2022-10-22T08:37:08.538Z,9.10
2022-10-22T08:39:50.155Z,7.60
2022-10-22T08:51:03.431Z,5.55
2022-10-22T08:54:09.178Z,6.20
2022-10-22T08:56:48.928Z,5.88
2022-10-22T08:59:47.168Z,6.47
2022-10-22T09:03:02.597Z,5.32
2022-10-22T09:08:25.133Z,4.95
2022-10-22T09:11:20.508Z,4.90
2022-10-22T09:14:05.303Z,7.80
2022-10-22T09:19:34.698Z,3.38
2022-10-22T09:25:02.974Z,4.75
2022-10-22T09:27:54.370Z,4.50
2022-10-22T09:30:40.152Z,4.70
2022-10-22T09:33:43.524Z,2.75
2022-10-22T09:36:46.270Z,3.28
2022-10-22T09:39:37.627Z,3.80
2022-10-22T09:42:21.984Z,4.40
2022-10-22T09:45:08.338Z,3.53
2022-10-22T09:48:01.048Z,2.80
2022-10-22T09:50:59.853Z,4.72
2022-10-22T09:53:50.616Z,4.38
2022-10-22T09:56:51.825Z,4.95
2022-10-22T09:59:36.260Z,2.30
2022-10-22T10:05:20.725Z,2.80
2022-10-22T10:08:00.781Z,3.38
2022-10-22T10:22:12.061Z,3.55
2022-10-22T10:27:58.068Z,3.80
2022-10-22T10:30:42.638Z,3.22
2022-10-22T10:33:42.283Z,5.72
2022-10-22T10:36:58.645Z,2.15
2022-10-22T10:40:04.224Z,2.55
2022-10-22T10:45:55.845Z,1.88
2022-10-22T10:48:57.403Z,3.10
2022-10-22T11:00:14.783Z,1.55
2022-10-22T11:03:33.207Z,3.55
2022-10-22T11:06:24.569Z,2.38
2022-10-22T11:09:10.400Z,2.72
2022-10-22T11:12:22.085Z,1.35
2022-10-22T11:17:56.633Z,3.30
2022-10-22T11:20:49.852Z,2.20
2022-10-22T11:23:40.321Z,3.00
2022-10-22T11:26:29.832Z,2.72
2022-10-22T11:29:17.494Z,2.72
2022-10-22T11:31:57.987Z,2.20
2022-10-22T11:34:47.774Z,2.47
2022-10-22T11:37:42.206Z,2.67
2022-10-22T11:40:37.828Z,2.15
2022-10-22T11:43:34.352Z,2.00
2022-10-22T11:46:34.408Z,2.10
2022-10-22T11:49:28.153Z,2.22
2022-10-22T11:52:40.507Z,2.20
2022-10-22T11:55:44.887Z,3.22
2022-10-22T12:01:33.300Z,2.22
2022-10-22T12:07:24.859Z,3.85
2022-10-22T12:10:00.240Z,2.47
2022-10-22T12:12:42.045Z,2.67
2022-10-22T12:15:36.158Z,1.63
2022-10-22T12:18:28.015Z,2.10
2022-10-22T12:21:10.400Z,3.38
2022-10-22T12:23:50.657Z,4.28
2022-10-22T12:26:39.284Z,4.40
2022-10-22T12:29:21.028Z,6.20
2022-10-22T12:32:04.976Z,3.92
2022-10-22T12:34:54.313Z,2.40
2022-10-22T12:37:41.795Z,5.07
2022-10-22T12:43:08.032Z,4.97
2022-10-22T12:45:45.401Z,1.98
2022-10-22T12:48:32.608Z,1.50
2022-10-22T12:51:17.286Z,3.75
2022-10-22T12:54:14.747Z,1.63
2022-10-22T12:56:56.993Z,2.15
2022-10-22T12:59:49.974Z,3.10
2022-10-22T13:02:49.490Z,2.65
2022-10-22T13:05:39.513Z,3.35
2022-10-22T13:08:18.036Z,5.88
2022-10-22T13:10:59.806Z,4.10
2022-10-22T13:16:30.324Z,3.88
2022-10-22T13:19:06.992Z,4.03
2022-10-22T13:21:44.019Z,4.47
2022-10-22T13:24:28.537Z,5.57
2022-10-22T13:27:09.279Z,5.88
2022-10-22T13:29:52.434Z,9.77
2022-10-22T13:32:46.044Z,10.85
2022-10-22T13:35:32.337Z,10.98
2022-10-22T13:38:10.153Z,10.35
2022-10-22T13:40:49.316Z,6.68
2022-10-22T13:43:34.881Z,4.55
2022-10-22T13:46:33.183Z,6.35
2022-10-22T13:49:21.320Z,6.63
2022-10-22T13:51:58.681Z,6.80
2022-10-22T13:54:45.293Z,7.35
2022-10-22T13:57:40.414Z,6.45
2022-10-22T14:00:19.322Z,7.90
2022-10-22T14:03:01.972Z,8.68
2022-10-22T14:05:46.146Z,8.18
2022-10-22T14:11:19.872Z,6.95
2022-10-22T14:14:16.572Z,5.53
2022-10-22T14:16:55.796Z,4.82
2022-10-22T14:19:34.774Z,6.22
2022-10-22T14:22:37.895Z,7.32
2022-10-22T14:25:22.243Z,6.47
2022-10-22T14:28:03.770Z,5.18
2022-10-22T14:30:54.379Z,7.45
2022-10-22T14:33:35.908Z,6.47
2022-10-22T14:36:20.503Z,6.05
2022-10-22T14:39:14.115Z,5.78
2022-10-22T14:44:34.386Z,8.32
2022-10-22T14:47:06.117Z,5.88
2022-10-22T14:49:41.896Z,8.07
2022-10-22T14:52:26.183Z,7.03
2022-10-22T14:55:11.895Z,4.93
2022-10-22T14:57:53.752Z,5.25
2022-10-22T15:00:32.325Z,6.43
2022-10-22T15:03:20.408Z,6.13
2022-10-22T15:06:02.599Z,7.18
2022-10-22T15:08:50.259Z,4.85
2022-10-22T15:11:34.706Z,6.72
2022-10-22T15:14:16.819Z,4.13
2022-10-22T15:17:08.325Z,7.40
2022-10-22T15:19:50.737Z,4.10
2022-10-22T15:22:43.050Z,4.15
2022-10-22T15:25:30.564Z,3.53
2022-10-22T15:28:18.904Z,4.50
2022-10-22T15:31:18.466Z,3.95
2022-10-22T15:34:05.999Z,3.83
2022-10-22T15:36:48.678Z,6.00
2022-10-22T15:39:29.142Z,4.75
2022-10-22T15:42:11.329Z,3.65
2022-10-22T15:44:48.678Z,4.75
2022-10-22T15:47:36.367Z,3.65
2022-10-22T15:50:19.862Z,5.38
2022-10-22T15:52:57.732Z,3.90
2022-10-22T15:55:39.935Z,4.50
2022-10-22T15:58:17.136Z,5.60
2022-10-22T16:00:59.904Z,3.53
2022-10-22T16:03:38.985Z,4.00
2022-10-22T16:06:26.145Z,5.50
2022-10-22T16:09:12.381Z,4.80
2022-10-22T16:14:45.980Z,5.10
2022-10-22T16:17:24.549Z,5.00
2022-10-22T16:20:09.761Z,7.70
2022-10-22T16:22:50.933Z,8.02
2022-10-22T16:25:31.165Z,7.15
2022-10-22T16:28:14.354Z,5.97
2022-10-22T16:30:52.232Z,6.57
2022-10-22T16:33:46.467Z,7.22
2022-10-22T16:36:31.849Z,13.63
2022-10-22T16:39:11.282Z,11.98
2022-10-22T16:41:56.959Z,12.15
2022-10-22T16:44:40.379Z,9.98
2022-10-22T16:50:24.938Z,6.18
2022-10-22T16:53:07.669Z,4.65
2022-10-22T16:55:46.391Z,5.70
2022-10-22T16:58:26.771Z,4.88
2022-10-22T17:01:05.931Z,5.50
2022-10-22T17:03:50.422Z,4.30
2022-10-22T17:06:35.585Z,4.47
2022-10-22T17:09:30.119Z,5.65
2022-10-22T17:12:12.943Z,5.43
2022-10-22T17:14:57.283Z,6.68
2022-10-22T17:17:35.910Z,4.93
2022-10-22T17:20:16.088Z,4.57
2022-10-22T17:23:06.690Z,5.40
2022-10-22T17:26:00.814Z,5.45
2022-10-22T17:28:45.302Z,6.22
2022-10-22T17:34:15.559Z,7.45
2022-10-22T17:36:58.515Z,6.80
2022-10-22T17:39:48.890Z,5.72
2022-10-22T17:42:23.339Z,5.82
2022-10-22T17:45:11.460Z,5.57
2022-10-22T17:47:56.883Z,4.32
2022-10-22T17:50:35.322Z,5.30
2022-10-22T17:53:21.716Z,4.50
2022-10-22T17:56:15.342Z,5.35
2022-10-22T17:59:00.326Z,4.22
2022-10-22T18:01:50.133Z,6.78
2022-10-22T18:04:38.424Z,4.50
2022-10-22T18:07:25.352Z,5.32
2022-10-22T18:10:09.323Z,5.82
2022-10-22T18:12:51.576Z,4.38
2022-10-22T18:15:42.930Z,5.30
2022-10-22T18:18:35.335Z,6.20
2022-10-22T18:21:23.900Z,8.25
2022-10-22T18:24:10.598Z,9.32
2022-10-22T18:27:00.717Z,6.80
2022-10-22T18:29:46.931Z,6.18
2022-10-22T18:32:34.990Z,7.15
2022-10-22T18:35:18.015Z,7.00
2022-10-22T18:38:14.470Z,6.15
2022-10-22T18:40:53.180Z,5.72
2022-10-22T18:43:36.121Z,7.22
2022-10-22T18:46:10.500Z,6.38
2022-10-22T18:48:49.203Z,5.68
2022-10-22T18:51:26.945Z,6.07
2022-10-22T18:54:28.641Z,6.97
2022-10-22T18:57:10.643Z,14.63
2022-10-22T18:59:44.040Z,9.38
2022-10-22T19:02:34.326Z,8.77
2022-10-22T19:05:15.860Z,8.88
2022-10-22T19:07:57.855Z,12.48
2022-10-22T19:10:40.603Z,7.70
2022-10-22T19:13:30.476Z,9.80
2022-10-22T19:16:13.066Z,9.73
2022-10-22T19:18:50.247Z,8.02
2022-10-22T19:21:32.889Z,8.40
2022-10-22T19:24:21.729Z,7.85
2022-10-22T19:27:06.807Z,7.32
2022-10-22T19:29:54.404Z,8.15
2022-10-22T19:32:35.222Z,8.68
2022-10-22T19:35:16.202Z,9.15
2022-10-22T19:38:02.131Z,8.48
2022-10-22T19:40:47.944Z,9.57
2022-10-22T19:43:22.394Z,8.35
2022-10-22T19:45:55.993Z,8.60
2022-10-22T19:48:32.296Z,9.80
2022-10-22T19:51:33.282Z,11.98
2022-10-22T19:54:11.309Z,11.07
2022-10-22T19:56:45.560Z,8.77
2022-10-22T19:59:21.271Z,10.07
2022-10-22T20:02:06.834Z,10.18
2022-10-22T20:04:45.655Z,12.57
2022-10-22T20:07:31.717Z,10.57
2022-10-22T20:10:04.367Z,10.00
2022-10-22T20:12:51.156Z,12.03
2022-10-22T20:15:25.638Z,8.88
2022-10-22T20:18:06.344Z,12.32
2022-10-22T20:20:42.014Z,23.73
2022-10-22T20:23:16.546Z,11.65
2022-10-22T20:25:55.082Z,10.40
2022-10-22T20:28:29.921Z,12.60
2022-10-22T20:31:11.458Z,12.20
2022-10-22T20:33:40.602Z,11.27
2022-10-22T20:36:20.257Z,11.10
2022-10-22T20:38:55.150Z,16.55
2022-10-22T20:41:29.071Z,13.95
2022-10-22T20:44:00.384Z,10.02
2022-10-22T20:46:35.864Z,12.45
2022-10-22T20:49:16.654Z,11.88
2022-10-22T20:51:54.056Z,12.55
2022-10-22T20:54:29.015Z,11.05
2022-10-22T20:57:02.071Z,13.60
2022-10-22T20:59:38.453Z,13.30
2022-10-22T21:02:13.718Z,9.98
2022-10-22T21:04:46.556Z,10.43
2022-10-22T21:07:19.944Z,13.90
2022-10-22T21:09:53.071Z,11.35
2022-10-22T21:12:26.380Z,12.00
2022-10-22T21:14:56.680Z,11.88
2022-10-22T21:17:27.332Z,12.07
2022-10-22T21:19:58.589Z,9.70
2022-10-22T21:22:29.739Z,12.57
2022-10-22T21:24:59.409Z,9.52
2022-10-22T21:27:31.670Z,10.65
2022-10-22T21:30:01.766Z,10.80
2022-10-22T21:32:31.956Z,12.88
2022-10-22T21:35:03.304Z,12.68
2022-10-22T21:37:36.116Z,10.30
2022-10-22T21:40:05.479Z,12.55
2022-10-22T21:42:34.287Z,11.55
2022-10-22T21:45:03.960Z,10.80
2022-10-22T21:47:35.683Z,13.35
2022-10-22T21:50:07.149Z,12.20
2022-10-22T21:52:35.680Z,15.10
2022-10-22T21:55:04.892Z,16.88
2022-10-22T21:57:33.306Z,14.30
2022-10-22T22:00:01.935Z,15.38
2022-10-22T22:02:32.397Z,15.18
2022-10-22T22:05:02.013Z,14.63
2022-10-22T22:07:32.093Z,13.95
2022-10-22T22:10:00.289Z,16.00
2022-10-22T22:12:28.524Z,15.38
2022-10-22T22:14:56.354Z,15.68
2022-10-22T22:17:23.925Z,16.55
2022-10-22T22:19:51.942Z,13.85
2022-10-22T22:22:19.641Z,19.65
2022-10-22T22:24:47.103Z,17.23
2022-10-22T22:27:17.563Z,15.02
2022-10-22T22:29:45.549Z,15.98
2022-10-22T22:32:14.903Z,14.48
2022-10-22T22:34:42.771Z,16.45
2022-10-22T22:37:10.244Z,17.40
2022-10-22T22:39:37.730Z,16.10
2022-10-22T22:42:05.271Z,15.90
2022-10-22T22:44:32.619Z,17.35
2022-10-22T22:46:59.969Z,18.85
2022-10-22T22:49:27.236Z,15.65
2022-10-22T22:51:54.599Z,19.40
2022-10-22T22:54:22.104Z,17.02
2022-10-22T22:56:51.116Z,19.42
2022-10-22T22:59:18.528Z,17.90
2022-10-22T23:01:48.614Z,19.48
2022-10-22T23:04:19.574Z,16.45
2022-10-22T23:06:46.967Z,16.95
2022-10-22T23:09:16.129Z,16.27
2022-10-22T23:11:44.873Z,18.10
2022-10-22T23:14:14.917Z,14.93
2022-10-22T23:16:46.852Z,21.15
2022-10-22T23:21:46.324Z,17.75
2022-10-22T23:24:16.558Z,13.15
2022-10-22T23:26:46.809Z,14.27
2022-10-22T23:31:51.510Z,19.70
2022-10-22T23:34:21.877Z,14.23
2022-10-22T23:36:50.005Z,19.27
2022-10-22T23:39:20.421Z,23.02
2022-10-22T23:41:47.750Z,16.73
2022-10-22T23:44:15.077Z,12.93
2022-10-22T23:46:42.489Z,15.98
2022-10-22T23:49:10.409Z,20.38
2022-10-22T23:51:38.803Z,15.70
2022-10-22T23:54:09.242Z,13.20
2022-10-22T23:56:36.974Z,16.20
2022-10-22T23:59:04.988Z,17.48
